Santa Rita, Brazil
Current Conditions -  °F | °C
As of 3:00 PM on Sunday 21 Dec 2014 (Local Time) from SBJP Reporting Station
Broken Clouds Broken Clouds  
Wind Chill: 86°   Ceiling: 2600
Heat Index: 89°   Visibility: 6mi
Dew Point: 68°   Wind: 14mph
Humidity: 55%   Direction: 120°ESE
Pressure: 29.91"   Gusts: NA
Location:  7.11°S, 34.98°W
Report Text: SBJP 211800Z 12012KT 080V150 9999 BKN026 30/20 Q1013
Loading
Personal Weather Stations






























Interactive Weather Map New forecast layout! Learn more

10-Day Weather Forecast

Advertisements
Track Severe Weather on mobile